Weather at Ilo Airport

Public forecast

Using degrees Celsius for public forecast. Weather courtesy of forecast.io.

Current aviation weather report (METAR) for Ilo Airport

Retrieved 2021/06/16 19:00 UTC (4 minutes ago):

SPLO 161900Z 15009KT 9999 BKN030 20/15 Q1015 RMK PP000

Aviation forecast (TAF) for Ilo Airport

Retrieved 2021/06/16 18:00 UTC (1 hour ago):

TAF SPLO 161702Z 1618/1718 17009KT CAVOK TX21/1619Z TN15/1711Z FM170000 VRB02KT 8000 BKN025 FM171500 16008KT CAVOK